sensor_id;sensor_type;location;lat;lon;timestamp;pressure;altitude;pressure_sealevel;temperature;humidity
57791;BME280;43621;51.798;21.588;2024-02-04T00:02:00;99278.30;;;8.36;68.44
57791;BME280;43621;51.798;21.588;2024-02-04T00:06:02;99280.38;;;8.34;68.44
57791;BME280;43621;51.798;21.588;2024-02-04T00:10:03;99280.70;;;8.34;68.40
57791;BME280;43621;51.798;21.588;2024-02-04T00:14:05;99286.24;;;8.34;68.26
57791;BME280;43621;51.798;21.588;2024-02-04T00:18:07;99291.23;;;8.29;67.76
57791;BME280;43621;51.798;21.588;2024-02-04T00:22:08;99278.00;;;8.18;67.57
57791;BME280;43621;51.798;21.588;2024-02-04T00:26:10;99271.23;;;8.11;67.55
57791;BME280;43621;51.798;21.588;2024-02-04T00:30:11;99265.30;;;7.99;67.24
57791;BME280;43621;51.798;21.588;2024-02-04T00:34:13;99272.42;;;7.88;67.27
57791;BME280;43621;51.798;21.588;2024-02-04T00:38:15;99269.74;;;7.80;67.07
57791;BME280;43621;51.798;21.588;2024-02-04T00:42:16;99272.42;;;7.71;66.96
57791;BME280;43621;51.798;21.588;2024-02-04T00:46:18;99272.60;;;7.61;66.95
57791;BME280;43621;51.798;21.588;2024-02-04T00:50:20;99265.54;;;7.51;66.89
57791;BME280;43621;51.798;21.588;2024-02-04T00:54:22;99262.41;;;7.41;66.87
57791;BME280;43621;51.798;21.588;2024-02-04T00:58:24;99259.52;;;7.37;67.03
57791;BME280;43621;51.798;21.588;2024-02-04T01:02:25;99260.33;;;7.37;66.98
57791;BME280;43621;51.798;21.588;2024-02-04T01:06:27;99263.41;;;7.36;67.00
57791;BME280;43621;51.798;21.588;2024-02-04T01:10:29;99260.36;;;7.33;67.10
57791;BME280;43621;51.798;21.588;2024-02-04T01:14:31;99263.10;;;7.30;67.04
57791;BME280;43621;51.798;21.588;2024-02-04T01:18:32;99261.89;;;7.24;67.14
57791;BME280;43621;51.798;21.588;2024-02-04T01:22:34;99261.78;;;7.20;67.24
57791;BME280;43621;51.798;21.588;2024-02-04T01:26:36;99256.05;;;7.16;67.35
57791;BME280;43621;51.798;21.588;2024-02-04T01:30:37;99251.09;;;7.13;67.40
57791;BME280;43621;51.798;21.588;2024-02-04T01:34:39;99252.73;;;7.12;67.44
57791;BME280;43621;51.798;21.588;2024-02-04T01:38:40;99263.04;;;7.11;67.53
57791;BME280;43621;51.798;21.588;2024-02-04T01:42:42;99272.69;;;7.12;67.74
57791;BME280;43621;51.798;21.588;2024-02-04T01:46:44;99273.98;;;7.15;67.82
57791;BME280;43621;51.798;21.588;2024-02-04T01:50:47;99271.98;;;7.20;67.92
57791;BME280;43621;51.798;21.588;2024-02-04T01:54:52;99275.27;;;7.26;67.98
57791;BME280;43621;51.798;21.588;2024-02-04T01:58:54;99275.85;;;7.29;67.94
57791;BME280;43621;51.798;21.588;2024-02-04T02:02:56;99276.23;;;7.30;67.95
57791;BME280;43621;51.798;21.588;2024-02-04T02:06:58;99279.27;;;7.30;68.06
57791;BME280;43621;51.798;21.588;2024-02-04T02:11:10;99279.80;;;7.29;68.10
57791;BME280;43621;51.798;21.588;2024-02-04T02:15:17;99271.65;;;7.31;68.13
57791;BME280;43621;51.798;21.588;2024-02-04T02:24:09;99253.07;;;7.39;68.20
57791;BME280;43621;51.798;21.588;2024-02-04T02:28:11;99250.60;;;7.39;68.19
57791;BME280;43621;51.798;21.588;2024-02-04T02:32:13;99253.36;;;7.40;68.27
57791;BME280;43621;51.798;21.588;2024-02-04T02:36:21;99261.95;;;7.41;68.28
57791;BME280;43621;51.798;21.588;2024-02-04T02:40:33;99265.89;;;7.42;68.30
57791;BME280;43621;51.798;21.588;2024-02-04T02:44:39;99266.48;;;7.43;68.39
57791;BME280;43621;51.798;21.588;2024-02-04T02:48:41;99264.41;;;7.44;68.32
57791;BME280;43621;51.798;21.588;2024-02-04T02:52:43;99269.33;;;7.44;68.29
57791;BME280;43621;51.798;21.588;2024-02-04T02:56:44;99261.87;;;7.44;68.17
57791;BME280;43621;51.798;21.588;2024-02-04T03:00:46;99262.30;;;7.41;68.18
57791;BME280;43621;51.798;21.588;2024-02-04T03:04:47;99261.19;;;7.39;68.24
57791;BME280;43621;51.798;21.588;2024-02-04T03:08:49;99259.62;;;7.42;68.19
57791;BME280;43621;51.798;21.588;2024-02-04T03:12:51;99265.13;;;7.44;68.14
57791;BME280;43621;51.798;21.588;2024-02-04T03:16:52;99270.45;;;7.45;68.04
57791;BME280;43621;51.798;21.588;2024-02-04T03:20:54;99272.86;;;7.45;67.94
57791;BME280;43621;51.798;21.588;2024-02-04T03:24:55;99271.38;;;7.44;67.90
57791;BME280;43621;51.798;21.588;2024-02-04T03:28:57;99272.48;;;7.39;67.81
57791;BME280;43621;51.798;21.588;2024-02-04T03:32:58;99262.72;;;7.36;67.79
57791;BME280;43621;51.798;21.588;2024-02-04T03:37:00;99261.37;;;7.33;67.69
57791;BME280;43621;51.798;21.588;2024-02-04T03:41:01;99262.52;;;7.32;67.68
57791;BME280;43621;51.798;21.588;2024-02-04T03:45:04;99261.73;;;7.31;67.66
57791;BME280;43621;51.798;21.588;2024-02-04T03:49:09;99262.83;;;7.33;67.60
57791;BME280;43621;51.798;21.588;2024-02-04T03:53:10;99263.08;;;7.32;67.58
57791;BME280;43621;51.798;21.588;2024-02-04T03:57:12;99267.56;;;7.30;67.58
57791;BME280;43621;51.798;21.588;2024-02-04T04:01:13;99271.81;;;7.27;67.38
57791;BME280;43621;51.798;21.588;2024-02-04T04:05:15;99281.58;;;7.25;67.40
57791;BME280;43621;51.798;21.588;2024-02-04T04:09:16;99291.71;;;7.24;67.32
57791;BME280;43621;51.798;21.588;2024-02-04T04:13:18;99286.64;;;7.25;67.28
57791;BME280;43621;51.798;21.588;2024-02-04T04:17:19;99288.20;;;7.25;67.16
57791;BME280;43621;51.798;21.588;2024-02-04T04:21:21;99289.27;;;7.24;67.07
57791;BME280;43621;51.798;21.588;2024-02-04T04:25:22;99290.33;;;7.24;66.88
57791;BME280;43621;51.798;21.588;2024-02-04T04:29:24;99285.82;;;7.20;66.58
57791;BME280;43621;51.798;21.588;2024-02-04T04:33:26;99278.91;;;7.16;66.43
57791;BME280;43621;51.798;21.588;2024-02-04T04:37:27;99278.58;;;7.14;66.41
57791;BME280;43621;51.798;21.588;2024-02-04T04:41:29;99286.55;;;7.14;66.40
57791;BME280;43621;51.798;21.588;2024-02-04T04:45:30;99284.17;;;7.16;66.14
57791;BME280;43621;51.798;21.588;2024-02-04T04:49:32;99288.58;;;7.15;65.91
57791;BME280;43621;51.798;21.588;2024-02-04T04:53:33;99285.73;;;7.14;66.04
57791;BME280;43621;51.798;21.588;2024-02-04T04:57:35;99282.46;;;7.13;65.78
57791;BME280;43621;51.798;21.588;2024-02-04T05:01:36;99283.73;;;7.11;65.75
57791;BME280;43621;51.798;21.588;2024-02-04T05:05:38;99289.42;;;7.11;65.60
57791;BME280;43621;51.798;21.588;2024-02-04T05:09:39;99280.63;;;7.11;65.47
57791;BME280;43621;51.798;21.588;2024-02-04T05:13:41;99283.29;;;7.08;65.22
57791;BME280;43621;51.798;21.588;2024-02-04T05:17:42;99282.98;;;7.05;65.24
57791;BME280;43621;51.798;21.588;2024-02-04T05:21:44;99279.03;;;7.05;65.41
57791;BME280;43621;51.798;21.588;2024-02-04T05:25:45;99269.00;;;7.07;65.19
57791;BME280;43621;51.798;21.588;2024-02-04T05:29:47;99270.33;;;7.07;64.98
57791;BME280;43621;51.798;21.588;2024-02-04T05:33:48;99270.79;;;7.10;65.02
57791;BME280;43621;51.798;21.588;2024-02-04T05:37:50;99270.22;;;7.11;65.01
57791;BME280;43621;51.798;21.588;2024-02-04T05:41:51;99312.21;;;7.07;65.03
57791;BME280;43621;51.798;21.588;2024-02-04T05:45:53;99308.30;;;6.92;65.22
57791;BME280;43621;51.798;21.588;2024-02-04T05:49:55;99304.27;;;6.74;65.42
57791;BME280;43621;51.798;21.588;2024-02-04T05:53:57;99301.69;;;6.62;65.65
57791;BME280;43621;51.798;21.588;2024-02-04T05:57:58;99302.76;;;6.56;66.06
57791;BME280;43621;51.798;21.588;2024-02-04T06:02:00;99319.33;;;6.57;66.31
57791;BME280;43621;51.798;21.588;2024-02-04T06:06:02;99339.92;;;6.59;66.45
57791;BME280;43621;51.798;21.588;2024-02-04T06:10:03;99348.19;;;6.54;66.94
57791;BME280;43621;51.798;21.588;2024-02-04T06:14:05;99350.06;;;6.33;67.09
57791;BME280;43621;51.798;21.588;2024-02-04T06:18:07;99334.05;;;6.16;67.14
57791;BME280;43621;51.798;21.588;2024-02-04T06:22:08;99339.70;;;6.02;67.19
57791;BME280;43621;51.798;21.588;2024-02-04T06:26:10;99337.22;;;5.92;67.37
57791;BME280;43621;51.798;21.588;2024-02-04T06:30:12;99335.88;;;5.85;67.50
57791;BME280;43621;51.798;21.588;2024-02-04T06:34:13;99339.07;;;5.82;67.63
57791;BME280;43621;51.798;21.588;2024-02-04T06:38:15;99335.39;;;5.85;67.68
57791;BME280;43621;51.798;21.588;2024-02-04T06:42:16;99336.06;;;5.91;67.69
57791;BME280;43621;51.798;21.588;2024-02-04T06:46:27;99339.02;;;6.08;67.73
57791;BME280;43621;51.798;21.588;2024-02-04T06:50:29;99337.27;;;6.29;67.60
57791;BME280;43621;51.798;21.588;2024-02-04T06:54:30;99331.30;;;6.54;67.54
57791;BME280;43621;51.798;21.588;2024-02-04T06:58:32;99331.48;;;7.12;67.58
57791;BME280;43621;51.798;21.588;2024-02-04T07:02:34;99335.98;;;8.11;67.30
57791;BME280;43621;51.798;21.588;2024-02-04T07:06:36;99335.48;;;8.51;66.33
57791;BME280;43621;51.798;21.588;2024-02-04T07:10:37;99332.80;;;8.81;65.47
57791;BME280;43621;51.798;21.588;2024-02-04T07:14:39;99333.61;;;9.04;64.80
57791;BME280;43621;51.798;21.588;2024-02-04T07:18:40;99332.63;;;9.36;64.54
57791;BME280;43621;51.798;21.588;2024-02-04T07:22:42;99327.41;;;9.63;64.00
57791;BME280;43621;51.798;21.588;2024-02-04T07:26:45;99334.48;;;9.74;63.30
57791;BME280;43621;51.798;21.588;2024-02-04T07:30:46;99341.19;;;9.57;62.95
57791;BME280;43621;51.798;21.588;2024-02-04T07:34:48;99339.31;;;9.58;62.72
57791;BME280;43621;51.798;21.588;2024-02-04T07:38:49;99343.95;;;9.36;62.21
57791;BME280;43621;51.798;21.588;2024-02-04T07:42:51;99350.48;;;8.97;61.99
57791;BME280;43621;51.798;21.588;2024-02-04T07:46:52;99351.29;;;8.64;62.34
57791;BME280;43621;51.798;21.588;2024-02-04T07:50:54;99351.73;;;8.37;62.63
57791;BME280;43621;51.798;21.588;2024-02-04T07:54:55;99355.50;;;8.15;62.81
57791;BME280;43621;51.798;21.588;2024-02-04T07:58:57;99352.98;;;8.02;62.87
57791;BME280;43621;51.798;21.588;2024-02-04T08:02:58;99335.96;;;7.98;62.84
57791;BME280;43621;51.798;21.588;2024-02-04T08:07:00;99330.17;;;7.99;62.67
57791;BME280;43621;51.798;21.588;2024-02-04T08:11:01;99321.00;;;8.14;62.59
57791;BME280;43621;51.798;21.588;2024-02-04T08:15:04;99317.92;;;8.62;62.36
57791;BME280;43621;51.798;21.588;2024-02-04T08:19:06;99316.09;;;9.97;61.37
57791;BME280;43621;51.798;21.588;2024-02-04T08:23:08;99310.52;;;10.85;59.59
57791;BME280;43621;51.798;21.588;2024-02-04T08:27:09;99319.40;;;11.04;59.03
57791;BME280;43621;51.798;21.588;2024-02-04T08:31:11;99318.10;;;10.99;58.33
57791;BME280;43621;51.798;21.588;2024-02-04T08:35:13;99312.52;;;10.86;56.99
57791;BME280;43621;51.798;21.588;2024-02-04T08:39:14;99312.56;;;10.73;56.99
57791;BME280;43621;51.798;21.588;2024-02-04T08:43:16;99323.09;;;10.45;56.78
57791;BME280;43621;51.798;21.588;2024-02-04T08:47:17;99330.34;;;10.00;56.61
57791;BME280;43621;51.798;21.588;2024-02-04T08:51:20;99325.23;;;9.60;57.16
57791;BME280;43621;51.798;21.588;2024-02-04T08:55:21;99326.53;;;9.31;57.80
57791;BME280;43621;51.798;21.588;2024-02-04T08:59:23;99323.64;;;9.16;57.76
57791;BME280;43621;51.798;21.588;2024-02-04T09:03:25;99321.77;;;8.95;58.11
57791;BME280;43621;51.798;21.588;2024-02-04T09:07:27;99322.80;;;8.80;58.28
57791;BME280;43621;51.798;21.588;2024-02-04T09:11:29;99329.46;;;8.72;58.71
57791;BME280;43621;51.798;21.588;2024-02-04T09:15:30;99331.88;;;8.63;58.92
57791;BME280;43621;51.798;21.588;2024-02-04T09:19:32;99334.27;;;8.49;58.60
57791;BME280;43621;51.798;21.588;2024-02-04T09:23:34;99335.35;;;8.35;58.69
57791;BME280;43621;51.798;21.588;2024-02-04T09:27:35;99343.48;;;8.28;59.15
57791;BME280;43621;51.798;21.588;2024-02-04T09:31:37;99345.55;;;8.25;59.34
57791;BME280;43621;51.798;21.588;2024-02-04T09:35:39;99341.96;;;8.22;59.35
57791;BME280;43621;51.798;21.588;2024-02-04T09:39:41;99342.95;;;8.19;59.16
57791;BME280;43621;51.798;21.588;2024-02-04T09:43:43;99349.08;;;8.17;59.31
57791;BME280;43621;51.798;21.588;2024-02-04T09:47:45;99344.33;;;8.06;58.88
57791;BME280;43621;51.798;21.588;2024-02-04T09:51:47;99343.03;;;8.07;59.28
57791;BME280;43621;51.798;21.588;2024-02-04T09:55:50;99340.71;;;8.15;59.15
57791;BME280;43621;51.798;21.588;2024-02-04T09:59:52;99330.92;;;8.19;59.07
57791;BME280;43621;51.798;21.588;2024-02-04T10:03:53;99328.10;;;8.22;58.60
57791;BME280;43621;51.798;21.588;2024-02-04T10:07:55;99321.74;;;8.28;57.98
57791;BME280;43621;51.798;21.588;2024-02-04T10:11:57;99317.30;;;8.33;57.86
57791;BME280;43621;51.798;21.588;2024-02-04T10:15:58;99312.14;;;8.38;57.59
57791;BME280;43621;51.798;21.588;2024-02-04T10:20:00;99312.41;;;8.50;57.78
57791;BME280;43621;51.798;21.588;2024-02-04T10:24:02;99304.64;;;8.59;57.42
57791;BME280;43621;51.798;21.588;2024-02-04T10:28:04;99297.84;;;8.63;57.32
57791;BME280;43621;51.798;21.588;2024-02-04T10:32:06;99297.18;;;8.66;56.87
57791;BME280;43621;51.798;21.588;2024-02-04T10:36:08;99298.21;;;8.59;56.82
57791;BME280;43621;51.798;21.588;2024-02-04T10:40:10;99292.33;;;8.48;56.52
57791;BME280;43621;51.798;21.588;2024-02-04T10:44:16;99285.27;;;8.33;56.56
57791;BME280;43621;51.798;21.588;2024-02-04T10:48:19;99273.92;;;8.25;56.76
57791;BME280;43621;51.798;21.588;2024-02-04T10:52:27;99263.25;;;8.22;56.97
57791;BME280;43621;51.798;21.588;2024-02-04T10:56:36;99256.55;;;8.23;57.03
57791;BME280;43621;51.798;21.588;2024-02-04T11:00:40;99258.79;;;8.21;56.89
57791;BME280;43621;51.798;21.588;2024-02-04T11:04:42;99252.70;;;8.17;56.90
57791;BME280;43621;51.798;21.588;2024-02-04T11:08:46;99241.67;;;8.14;56.93
57791;BME280;43621;51.798;21.588;2024-02-04T11:12:49;99233.36;;;8.14;57.08
57791;BME280;43621;51.798;21.588;2024-02-04T11:17:07;99227.43;;;8.14;57.30
57791;BME280;43621;51.798;21.588;2024-02-04T11:25:41;99215.56;;;8.11;57.00
57791;BME280;43621;51.798;21.588;2024-02-04T11:29:44;99230.59;;;8.14;57.06
57791;BME280;43621;51.798;21.588;2024-02-04T11:33:46;99222.85;;;8.10;57.22
57791;BME280;43621;51.798;21.588;2024-02-04T11:37:48;99221.48;;;8.06;57.58
57791;BME280;43621;51.798;21.588;2024-02-04T11:41:50;99225.23;;;7.98;57.71
57791;BME280;43621;51.798;21.588;2024-02-04T11:45:52;99229.41;;;7.81;58.14
57791;BME280;43621;51.798;21.588;2024-02-04T11:49:59;99233.55;;;7.65;58.74
57791;BME280;43621;51.798;21.588;2024-02-04T11:54:01;99231.23;;;7.47;59.50
57791;BME280;43621;51.798;21.588;2024-02-04T11:58:07;99224.70;;;7.36;60.05
57791;BME280;43621;51.798;21.588;2024-02-04T12:02:09;99221.19;;;7.30;60.63
57791;BME280;43621;51.798;21.588;2024-02-04T12:06:11;99215.77;;;7.29;60.63
57791;BME280;43621;51.798;21.588;2024-02-04T12:10:16;99207.40;;;7.27;61.09
57791;BME280;43621;51.798;21.588;2024-02-04T12:14:18;99203.84;;;7.19;61.76
57791;BME280;43621;51.798;21.588;2024-02-04T12:18:20;99194.30;;;7.11;62.24
57791;BME280;43621;51.798;21.588;2024-02-04T12:22:22;99193.36;;;7.11;62.90
57791;BME280;43621;51.798;21.588;2024-02-04T12:26:24;99187.08;;;7.11;63.45
57791;BME280;43621;51.798;21.588;2024-02-04T12:30:26;99179.84;;;7.10;63.62
57791;BME280;43621;51.798;21.588;2024-02-04T12:34:29;99179.98;;;7.14;63.77
57791;BME280;43621;51.798;21.588;2024-02-04T12:38:31;99178.34;;;7.13;64.16
57791;BME280;43621;51.798;21.588;2024-02-04T12:42:32;99167.41;;;7.07;64.44
57791;BME280;43621;51.798;21.588;2024-02-04T12:46:34;99163.10;;;7.01;64.61
57791;BME280;43621;51.798;21.588;2024-02-04T12:50:39;99153.77;;;6.99;65.03
57791;BME280;43621;51.798;21.588;2024-02-04T12:54:44;99143.19;;;7.01;65.06
57791;BME280;43621;51.798;21.588;2024-02-04T12:58:46;99139.05;;;7.00;65.45
57791;BME280;43621;51.798;21.588;2024-02-04T13:02:50;99132.05;;;6.97;65.71
57791;BME280;43621;51.798;21.588;2024-02-04T13:06:52;99127.21;;;6.97;66.33
57791;BME280;43621;51.798;21.588;2024-02-04T13:10:54;99129.55;;;6.95;66.43
57791;BME280;43621;51.798;21.588;2024-02-04T13:14:57;99128.80;;;6.89;66.55
57791;BME280;43621;51.798;21.588;2024-02-04T13:18:58;99128.38;;;6.83;66.67
57791;BME280;43621;51.798;21.588;2024-02-04T13:23:00;99122.97;;;6.83;66.86
57791;BME280;43621;51.798;21.588;2024-02-04T13:27:05;99127.79;;;6.83;67.19
57791;BME280;43621;51.798;21.588;2024-02-04T13:31:09;99120.56;;;6.83;67.52
57791;BME280;43621;51.798;21.588;2024-02-04T13:35:11;99113.23;;;6.85;67.33
57791;BME280;43621;51.798;21.588;2024-02-04T13:39:13;99104.39;;;6.89;67.46
57791;BME280;43621;51.798;21.588;2024-02-04T13:43:15;99101.84;;;6.92;67.53
57791;BME280;43621;51.798;21.588;2024-02-04T13:47:16;99099.55;;;6.88;67.77
57791;BME280;43621;51.798;21.588;2024-02-04T13:51:18;99082.93;;;6.81;68.27
57791;BME280;43621;51.798;21.588;2024-02-04T13:55:19;99076.88;;;6.80;68.11
57791;BME280;43621;51.798;21.588;2024-02-04T13:59:21;99073.15;;;6.83;67.93
57791;BME280;43621;51.798;21.588;2024-02-04T14:03:22;99065.70;;;6.85;67.91
57791;BME280;43621;51.798;21.588;2024-02-04T14:07:25;99060.14;;;6.85;68.00
57791;BME280;43621;51.798;21.588;2024-02-04T14:11:27;99055.95;;;6.85;68.26
57791;BME280;43621;51.798;21.588;2024-02-04T14:15:30;99053.48;;;6.82;68.21
57791;BME280;43621;51.798;21.588;2024-02-04T14:19:32;99060.56;;;6.81;68.11
57791;BME280;43621;51.798;21.588;2024-02-04T14:23:33;99061.55;;;6.79;68.08
57791;BME280;43621;51.798;21.588;2024-02-04T14:27:35;99063.63;;;6.79;68.06
57791;BME280;43621;51.798;21.588;2024-02-04T14:31:38;99063.41;;;6.78;68.19
57791;BME280;43621;51.798;21.588;2024-02-04T14:35:39;99058.64;;;6.79;68.19
57791;BME280;43621;51.798;21.588;2024-02-04T14:39:41;99052.78;;;6.78;68.20
57791;BME280;43621;51.798;21.588;2024-02-04T14:43:42;99043.02;;;6.79;68.10
57791;BME280;43621;51.798;21.588;2024-02-04T14:47:44;99041.33;;;6.78;68.02
57791;BME280;43621;51.798;21.588;2024-02-04T14:51:45;99030.21;;;6.75;68.06
57791;BME280;43621;51.798;21.588;2024-02-04T14:55:47;99024.74;;;6.73;67.95
57791;BME280;43621;51.798;21.588;2024-02-04T14:59:48;99024.02;;;6.76;67.87
57791;BME280;43621;51.798;21.588;2024-02-04T15:03:50;99023.04;;;6.75;67.65
57791;BME280;43621;51.798;21.588;2024-02-04T15:07:52;99013.45;;;6.76;67.54
57791;BME280;43621;51.798;21.588;2024-02-04T15:11:53;99009.23;;;6.78;67.50
57791;BME280;43621;51.798;21.588;2024-02-04T15:15:58;98999.67;;;6.79;67.34
57791;BME280;43621;51.798;21.588;2024-02-04T15:20:02;98991.23;;;6.80;67.33
57791;BME280;43621;51.798;21.588;2024-02-04T15:24:05;98986.92;;;6.85;67.18
57791;BME280;43621;51.798;21.588;2024-02-04T15:28:07;98980.42;;;6.90;67.04
57791;BME280;43621;51.798;21.588;2024-02-04T15:32:13;98981.15;;;6.93;66.91
57791;BME280;43621;51.798;21.588;2024-02-04T15:36:14;98981.31;;;6.93;66.48
57791;BME280;43621;51.798;21.588;2024-02-04T15:40:16;98982.11;;;6.90;66.30
57791;BME280;43621;51.798;21.588;2024-02-04T15:44:18;98976.66;;;6.93;66.46
57791;BME280;43621;51.798;21.588;2024-02-04T15:48:25;98969.83;;;6.97;66.30
57791;BME280;43621;51.798;21.588;2024-02-04T15:52:29;98957.69;;;6.97;66.03
57791;BME280;43621;51.798;21.588;2024-02-04T15:56:34;98962.31;;;6.98;65.98
57791;BME280;43621;51.798;21.588;2024-02-04T16:00:36;98961.98;;;6.98;65.79
57791;BME280;43621;51.798;21.588;2024-02-04T16:04:38;98963.71;;;6.98;65.61
57791;BME280;43621;51.798;21.588;2024-02-04T16:08:41;98963.38;;;6.99;65.65
57791;BME280;43621;51.798;21.588;2024-02-04T16:12:54;98956.84;;;7.02;65.51
57791;BME280;43621;51.798;21.588;2024-02-04T16:17:01;98957.86;;;7.03;65.29
57791;BME280;43621;51.798;21.588;2024-02-04T16:21:06;98958.50;;;7.01;65.28
57791;BME280;43621;51.798;21.588;2024-02-04T16:25:08;98955.10;;;7.03;65.27
57791;BME280;43621;51.798;21.588;2024-02-04T16:29:10;98952.02;;;7.04;65.27
57791;BME280;43621;51.798;21.588;2024-02-04T16:33:11;98950.46;;;7.08;65.15
57791;BME280;43621;51.798;21.588;2024-02-04T16:37:13;98936.84;;;7.11;64.90
57791;BME280;43621;51.798;21.588;2024-02-04T16:41:14;98932.84;;;7.11;64.78
57791;BME280;43621;51.798;21.588;2024-02-04T16:45:16;98926.24;;;7.11;64.84
57791;BME280;43621;51.798;21.588;2024-02-04T16:49:18;98922.98;;;7.09;64.55
57791;BME280;43621;51.798;21.588;2024-02-04T16:53:19;98921.20;;;7.09;64.53
57791;BME280;43621;51.798;21.588;2024-02-04T16:57:21;98914.91;;;7.13;64.39
57791;BME280;43621;51.798;21.588;2024-02-04T17:01:22;98915.36;;;7.15;64.25
57791;BME280;43621;51.798;21.588;2024-02-04T17:05:26;98912.69;;;7.13;64.19
57791;BME280;43621;51.798;21.588;2024-02-04T17:09:27;98908.91;;;7.12;64.03
57791;BME280;43621;51.798;21.588;2024-02-04T17:13:29;98907.10;;;7.13;63.85
57791;BME280;43621;51.798;21.588;2024-02-04T17:17:33;98903.38;;;7.17;63.80
57791;BME280;43621;51.798;21.588;2024-02-04T17:21:40;98891.48;;;7.19;63.52
57791;BME280;43621;51.798;21.588;2024-02-04T17:25:42;98890.58;;;7.19;63.59
57791;BME280;43621;51.798;21.588;2024-02-04T17:29:45;98888.46;;;7.19;63.65
57791;BME280;43621;51.798;21.588;2024-02-04T17:33:46;98883.82;;;7.20;63.51
57791;BME280;43621;51.798;21.588;2024-02-04T17:37:50;98885.54;;;7.22;63.31
57791;BME280;43621;51.798;21.588;2024-02-04T17:41:52;98878.48;;;7.24;63.17
57791;BME280;43621;51.798;21.588;2024-02-04T17:45:53;98864.06;;;7.24;63.20
57791;BME280;43621;51.798;21.588;2024-02-04T17:49:56;98862.84;;;7.19;62.92
57791;BME280;43621;51.798;21.588;2024-02-04T17:53:58;98857.67;;;7.13;63.11
57791;BME280;43621;51.798;21.588;2024-02-04T17:58:01;98862.19;;;7.09;63.18
57791;BME280;43621;51.798;21.588;2024-02-04T18:02:04;98852.16;;;7.09;63.05
57791;BME280;43621;51.798;21.588;2024-02-04T18:06:05;98847.77;;;7.09;62.98
57791;BME280;43621;51.798;21.588;2024-02-04T18:10:07;98844.35;;;7.09;63.03
57791;BME280;43621;51.798;21.588;2024-02-04T18:14:09;98843.73;;;7.06;62.96
57791;BME280;43621;51.798;21.588;2024-02-04T18:18:10;98841.56;;;7.01;62.90
57791;BME280;43621;51.798;21.588;2024-02-04T18:22:12;98837.26;;;7.03;63.11
57791;BME280;43621;51.798;21.588;2024-02-04T18:26:21;98833.97;;;7.08;63.03
57791;BME280;43621;51.798;21.588;2024-02-04T18:30:23;98828.39;;;7.12;63.10
57791;BME280;43621;51.798;21.588;2024-02-04T18:34:25;98826.14;;;7.16;62.88
57791;BME280;43621;51.798;21.588;2024-02-04T18:38:26;98825.84;;;7.15;62.77
57791;BME280;43621;51.798;21.588;2024-02-04T18:42:28;98823.92;;;7.15;62.90
57791;BME280;43621;51.798;21.588;2024-02-04T18:46:29;98826.89;;;7.19;62.84
57791;BME280;43621;51.798;21.588;2024-02-04T18:50:31;98832.30;;;7.22;62.60
57791;BME280;43621;51.798;21.588;2024-02-04T18:54:35;98834.59;;;7.23;62.52
57791;BME280;43621;51.798;21.588;2024-02-04T18:58:37;98837.42;;;7.24;62.56
57791;BME280;43621;51.798;21.588;2024-02-04T19:02:39;98834.36;;;7.24;62.41
57791;BME280;43621;51.798;21.588;2024-02-04T19:06:41;98828.92;;;7.23;62.42
57791;BME280;43621;51.798;21.588;2024-02-04T19:10:42;98822.06;;;7.24;62.34
57791;BME280;43621;51.798;21.588;2024-02-04T19:14:44;98825.21;;;7.24;62.24
57791;BME280;43621;51.798;21.588;2024-02-04T19:18:46;98823.20;;;7.23;62.27
57791;BME280;43621;51.798;21.588;2024-02-04T19:22:49;98819.09;;;7.22;62.38
57791;BME280;43621;51.798;21.588;2024-02-04T19:26:50;98812.10;;;7.21;62.24
57791;BME280;43621;51.798;21.588;2024-02-04T19:30:53;98810.52;;;7.19;62.18
57791;BME280;43621;51.798;21.588;2024-02-04T19:34:54;98800.09;;;7.18;62.10
57791;BME280;43621;51.798;21.588;2024-02-04T19:38:56;98804.47;;;7.19;62.15
57791;BME280;43621;51.798;21.588;2024-02-04T19:42:57;98803.09;;;7.21;62.06
57791;BME280;43621;51.798;21.588;2024-02-04T19:46:59;98805.36;;;7.21;61.95
57791;BME280;43621;51.798;21.588;2024-02-04T19:51:01;98799.76;;;7.19;61.86
57791;BME280;43621;51.798;21.588;2024-02-04T19:55:03;98799.30;;;7.19;61.75
57791;BME280;43621;51.798;21.588;2024-02-04T19:59:05;98784.77;;;7.18;61.77
57791;BME280;43621;51.798;21.588;2024-02-04T20:03:06;98787.07;;;7.20;61.84
57791;BME280;43621;51.798;21.588;2024-02-04T20:07:08;98785.64;;;7.24;61.72
57791;BME280;43621;51.798;21.588;2024-02-04T20:11:10;98787.61;;;7.25;61.55
57791;BME280;43621;51.798;21.588;2024-02-04T20:15:11;98785.80;;;7.24;61.42
57791;BME280;43621;51.798;21.588;2024-02-04T20:19:13;98787.14;;;7.24;61.60
57791;BME280;43621;51.798;21.588;2024-02-04T20:23:15;98788.46;;;7.23;61.44
57791;BME280;43621;51.798;21.588;2024-02-04T20:27:18;98777.02;;;7.21;61.52
57791;BME280;43621;51.798;21.588;2024-02-04T20:31:20;98775.66;;;7.21;61.57
57791;BME280;43621;51.798;21.588;2024-02-04T20:35:21;98767.95;;;7.22;61.60
57791;BME280;43621;51.798;21.588;2024-02-04T20:39:25;98767.76;;;7.22;61.57
57791;BME280;43621;51.798;21.588;2024-02-04T20:43:27;98766.41;;;7.21;61.65
57791;BME280;43621;51.798;21.588;2024-02-04T20:47:32;98762.93;;;7.18;61.71
57791;BME280;43621;51.798;21.588;2024-02-04T20:51:35;98766.77;;;7.14;61.89
57791;BME280;43621;51.798;21.588;2024-02-04T20:55:37;98767.06;;;7.11;62.11
57791;BME280;43621;51.798;21.588;2024-02-04T20:59:39;98762.17;;;7.10;62.21
57791;BME280;43621;51.798;21.588;2024-02-04T21:03:40;98753.53;;;7.08;62.23
57791;BME280;43621;51.798;21.588;2024-02-04T21:07:42;98759.09;;;7.04;62.50
57791;BME280;43621;51.798;21.588;2024-02-04T21:11:43;98763.38;;;6.97;62.83
57791;BME280;43621;51.798;21.588;2024-02-04T21:15:45;98758.55;;;6.90;63.58
57791;BME280;43621;51.798;21.588;2024-02-04T21:19:47;98754.17;;;6.85;63.82
57791;BME280;43621;51.798;21.588;2024-02-04T21:23:49;98746.35;;;6.83;64.18
57791;BME280;43621;51.798;21.588;2024-02-04T21:27:51;98738.07;;;6.81;64.32
57791;BME280;43621;51.798;21.588;2024-02-04T21:31:52;98738.21;;;6.76;64.60